Time;durP1;ratioP1;P1;durP2;ratioP2;P2;SDS_P1;SDS_P2;PMS_P1;PMS_P2;Temp;Humidity;BMP_temperature;BMP_pressure;BME280_temperature;BME280_humidity;BME280_pressure;Samples;Min_cycle;Max_cycle;Signal;HPM_P1;HPM_P2
2021/07/05 00:00:10;;;;;;;2.20;1.20;;;13.20;99.90;;;13.56;100.00;94894.00;2181521;56;26677;-49
2021/07/05 00:05:54;;;;;;;3.40;1.10;;;13.10;99.90;;;13.61;100.00;94864.00;2485063;53;33932;-49
2021/07/05 00:08:41;;;;;;;1.37;1.10;;;13.10;99.90;;;13.44;100.00;94896.00;2488227;54;26629;-49
2021/07/05 00:11:27;;;;;;;3.33;1.07;;;13.00;99.90;;;13.46;100.00;94886.00;2268898;55;26083;-49
2021/07/05 00:14:14;;;;;;;2.30;1.00;;;13.00;99.90;;;13.35;100.00;94899.00;2502197;54;26739;-49
2021/07/05 00:17:01;;;;;;;1.83;1.00;;;12.90;99.90;;;13.27;100.00;94889.00;2268654;55;26817;-49
2021/07/05 00:19:48;;;;;;;2.30;1.33;;;12.90;99.90;;;13.26;100.00;94901.00;2503595;54;26916;-49
2021/07/05 00:22:35;;;;;;;2.73;0.97;;;12.90;99.90;;;13.21;100.00;94896.00;2268926;55;26913;-49
2021/07/05 00:25:22;;;;;;;4.40;1.13;;;12.80;99.90;;;13.18;100.00;94904.00;2491451;54;27310;-49
2021/07/05 00:28:09;;;;;;;9.70;1.40;;;12.80;99.90;;;13.18;100.00;94911.00;2270383;55;26764;-49
2021/07/05 00:30:55;;;;;;;1.40;1.00;;;12.80;99.90;;;13.25;100.00;94915.00;2502923;54;26688;-50
2021/07/05 00:33:42;;;;;;;2.20;1.10;;;12.90;99.90;;;13.39;100.00;94901.00;2272436;55;26202;-49
2021/07/05 00:36:29;;;;;;;1.83;1.20;;;12.90;99.90;;;13.37;100.00;94901.00;2255193;55;26089;-49
2021/07/05 00:39:15;;;;;;;8.77;1.17;;;12.90;99.90;;;13.29;100.00;94890.00;2489200;54;26574;-49
2021/07/05 00:42:02;;;;;;;1.30;1.03;;;12.90;99.90;;;13.27;100.00;94892.00;2258569;54;26898;-50
2021/07/05 00:44:48;;;;;;;3.50;1.20;;;12.80;99.90;;;13.23;100.00;94898.00;2492041;54;26825;-49
2021/07/05 00:50:33;;;;;;;2.73;1.00;;;12.80;99.90;;;13.26;100.00;94864.00;2426961;55;34814;-49
2021/07/05 00:53:19;;;;;;;1.80;1.20;;;12.70;99.90;;;13.11;100.00;94892.00;2386468;56;26659;-49
2021/07/05 00:56:06;;;;;;;3.62;1.10;;;12.70;99.90;;;13.11;100.00;94892.00;2182170;56;26940;-50
2021/07/05 00:58:54;;;;;;;1.67;0.98;;;12.60;99.90;;;12.99;100.00;94893.00;2182926;58;27088;-49
2021/07/05 01:01:41;;;;;;;1.60;1.10;;;12.70;99.90;;;13.05;100.00;94885.00;2396509;56;26756;-49
2021/07/05 01:04:27;;;;;;;3.30;1.40;;;12.60;99.90;;;12.99;100.00;94888.00;2179039;56;26660;-49
2021/07/05 01:07:14;;;;;;;4.93;1.10;;;12.60;99.90;;;12.97;100.00;94888.00;2374284;56;26760;-49
2021/07/05 01:10:01;;;;;;;2.70;1.40;;;12.60;99.90;;;13.09;100.00;94897.00;2162577;56;26652;-49
2021/07/05 01:12:48;;;;;;;3.80;1.60;;;12.70;99.90;;;13.03;100.00;94898.00;2162618;56;26771;-48
2021/07/05 01:15:34;;;;;;;1.20;1.10;;;12.60;99.90;;;13.00;100.00;94903.00;2165899;56;27018;-49
2021/07/05 01:18:21;;;;;;;3.27;1.10;;;12.70;99.90;;;13.03;100.00;94892.00;2189267;56;26968;-49
2021/07/05 01:21:08;;;;;;;1.63;1.10;;;12.70;99.90;;;13.10;100.00;94888.00;2409986;55;27007;-49
2021/07/05 01:23:54;;;;;;;2.80;1.17;;;12.70;99.90;;;13.02;100.00;94888.00;2191670;55;26682;-50
2021/07/05 01:26:40;;;;;;;1.10;1.00;;;12.70;99.90;;;13.11;100.00;94884.00;2440918;55;26389;-49
2021/07/05 01:29:27;;;;;;;2.40;1.13;;;12.70;99.90;;;13.07;100.00;94883.00;2438134;55;26760;-49
2021/07/05 01:32:14;;;;;;;1.20;1.10;;;12.70;99.90;;;13.07;100.00;94885.00;2216173;56;26239;-50
2021/07/05 01:37:51;;;;;;;1.67;1.10;;;12.60;99.90;;;13.18;100.00;94843.00;2429951;54;33869;-50
2021/07/05 01:43:34;;;;;;;1.43;1.00;;;12.70;99.90;;;13.22;100.00;94850.00;2427809;54;33615;-49
2021/07/05 01:46:21;;;;;;;1.50;1.27;;;12.70;99.90;;;13.06;100.00;94871.00;2191614;54;26796;-49
2021/07/05 01:49:08;;;;;;;3.93;1.40;;;12.70;99.90;;;13.12;100.00;94870.00;2441490;55;27718;-49
2021/07/05 01:51:54;;;;;;;4.30;1.10;;;12.70;99.90;;;13.06;100.00;94877.00;2237315;55;26908;-49
2021/07/05 01:54:41;;;;;;;3.67;1.30;;;12.70;99.90;;;13.08;100.00;94872.00;2468191;55;26939;-50
2021/07/05 01:57:29;;;;;;;1.10;1.00;;;12.60;99.90;;;12.97;100.00;94880.00;2238073;55;27286;-52
2021/07/05 02:03:18;;;;;;;3.90;1.37;;;12.60;99.90;;;13.01;100.00;94855.00;2433350;55;34001;-48
2021/07/05 02:06:05;;;;;;;4.77;1.20;;;12.60;99.90;;;13.00;100.00;94875.00;2186504;57;26761;-49
2021/07/05 02:08:51;;;;;;;3.10;1.33;;;12.60;99.90;;;12.93;100.00;94884.00;2185071;57;26829;-49
2021/07/05 02:11:38;;;;;;;3.63;1.20;;;12.60;99.90;;;12.95;100.00;94872.00;2405252;56;26802;-49
2021/07/05 02:14:24;;;;;;;2.73;1.07;;;12.70;99.90;;;13.03;100.00;94879.00;2201375;56;26718;-49
2021/07/05 02:17:12;;;;;;;1.20;1.10;;;12.60;99.90;;;12.97;100.00;94882.00;2435975;55;26758;-49
2021/07/05 02:19:58;;;;;;;2.40;1.20;;;12.60;99.90;;;12.96;100.00;94887.00;2207783;56;26683;-49
2021/07/05 02:22:49;;;;;;;2.10;1.10;;;12.60;99.90;;;12.98;100.00;94873.00;2431193;55;27384;-49
2021/07/05 02:25:37;;;;;;;5.97;1.30;;;12.60;99.90;;;13.07;100.00;94870.00;2206592;56;27547;-49
2021/07/05 02:28:27;;;;;;;4.00;1.20;;;12.60;99.90;;;13.06;100.00;94866.00;2430025;55;27032;-49
2021/07/05 02:31:13;;;;;;;1.20;1.10;;;12.60;99.90;;;12.94;100.00;94866.00;2208347;56;26174;-50
2021/07/05 02:33:59;;;;;;;3.73;1.30;;;12.50;99.90;;;12.95;100.00;94859.00;2210042;56;26717;-50
2021/07/05 02:36:48;;;;;;;1.20;1.10;;;12.50;99.90;;;12.89;100.00;94868.00;2208726;56;26804;-50
2021/07/05 02:39:34;;;;;;;3.77;1.20;;;12.50;99.90;;;12.83;100.00;94877.00;2197137;56;26823;-56
2021/07/05 02:45:22;;;;;;;4.80;1.43;;;12.40;99.90;;;13.04;100.00;94857.00;2375437;55;34564;-50
2021/07/05 02:48:12;;;;;;;1.63;1.30;;;12.40;99.90;;;12.78;100.00;94879.00;2328251;57;27637;-50
2021/07/05 02:53:57;;;;;;;3.00;1.43;;;12.30;99.90;;;12.78;100.00;94848.00;2465006;53;33671;-50
2021/07/05 02:56:43;;;;;;;2.47;1.30;;;12.20;99.90;;;12.48;100.00;94862.00;2215685;55;26693;-50
2021/07/05 02:59:30;;;;;;;1.70;1.30;;;12.10;99.90;;;12.38;100.00;94861.00;2439702;55;26734;-50
2021/07/05 03:02:16;;;;;;;5.17;1.40;;;11.90;99.90;;;12.29;100.00;94868.00;2215380;55;26692;-54
2021/07/05 03:05:07;;;;;;;3.20;1.20;;;12.00;99.90;;;12.38;100.00;94867.00;2434191;55;26663;-50
2021/07/05 03:07:53;;;;;;;4.07;1.57;;;11.90;99.90;;;12.25;100.00;94867.00;2214095;55;26887;-50
2021/07/05 03:10:41;;;;;;;1.50;1.40;;;11.90;99.90;;;12.22;100.00;94873.00;2213071;55;27206;-50
2021/07/05 03:13:27;;;;;;;4.10;1.60;;;11.70;99.90;;;12.01;100.00;94864.00;2216079;55;26140;-50
2021/07/05 03:16:14;;;;;;;1.80;1.30;;;11.70;99.90;;;12.15;100.00;94866.00;2215317;55;27251;-50
2021/07/05 03:19:00;;;;;;;3.30;1.37;;;11.70;99.90;;;12.02;100.00;94862.00;2207209;55;27402;-51
2021/07/05 03:21:47;;;;;;;3.10;1.30;;;11.60;99.90;;;11.96;100.00;94875.00;2206044;55;26610;-50
2021/07/05 03:24:34;;;;;;;3.37;1.50;;;11.50;99.90;;;11.96;100.00;94873.00;2216474;55;26767;-50
2021/07/05 03:30:20;;;;;;;2.77;1.40;;;11.50;99.90;;;11.94;100.00;94843.00;2391837;55;34281;-50
2021/07/05 03:33:08;;;;;;;2.50;1.50;;;11.40;99.90;;;11.78;100.00;94876.00;2162030;57;26731;-51
2021/07/05 03:35:54;;;;;;;2.13;1.50;;;11.40;99.90;;;11.75;100.00;94875.00;2390535;55;26791;-51
2021/07/05 03:38:40;;;;;;;3.17;1.60;;;11.30;99.90;;;11.66;100.00;94877.00;2190134;56;26687;-50
2021/07/05 03:41:27;;;;;;;2.97;1.40;;;11.30;99.90;;;11.71;100.00;94883.00;2408166;55;26819;-51
2021/07/05 03:44:13;;;;;;;2.53;1.63;;;11.20;99.90;;;11.60;100.00;94880.00;2190552;55;26938;-50
2021/07/05 03:46:59;;;;;;;4.87;1.30;;;11.20;99.90;;;11.62;100.00;94881.00;2409123;55;26748;-50
2021/07/05 03:52:45;;;;;;;3.10;1.50;;;11.20;99.90;;;11.68;100.00;94846.00;2392135;55;34258;-50
2021/07/05 03:55:34;;;;;;;4.07;1.43;;;11.20;99.90;;;11.63;100.00;94879.00;2186535;56;26786;-51
2021/07/05 03:58:20;;;;;;;2.17;1.63;;;11.20;99.90;;;11.63;100.00;94885.00;2403766;56;27121;-50
2021/07/05 04:01:06;;;;;;;1.77;1.47;;;11.20;99.90;;;11.65;100.00;94883.00;2184681;55;26782;-50
2021/07/05 04:03:53;;;;;;;1.57;1.30;;;11.30;99.90;;;11.64;100.00;94879.00;2397993;55;26844;-50
2021/07/05 04:09:36;;;;;;;1.83;1.20;;;11.20;99.90;;;11.75;100.00;94850.00;2376729;55;34132;-51
2021/07/05 04:12:23;;;;;;;1.77;1.40;;;11.20;99.90;;;11.63;100.00;94875.00;2148369;57;26135;-50
2021/07/05 04:15:11;;;;;;;2.60;1.37;;;11.20;99.90;;;11.65;100.00;94881.00;2349970;56;27207;-50
2021/07/05 04:17:58;;;;;;;1.60;1.43;;;11.30;99.90;;;11.80;100.00;94878.00;2136669;57;26706;-51
2021/07/05 04:20:45;;;;;;;2.60;1.70;;;11.40;99.90;;;11.93;100.00;94883.00;2364971;56;27108;-50
2021/07/05 04:26:28;;;;;;;1.90;1.30;;;11.40;99.90;;;11.92;100.00;94855.00;2363936;56;34348;-51
2021/07/05 04:29:15;;;;;;;1.40;1.30;;;11.40;99.90;;;11.86;100.00;94882.00;2133822;57;27234;-50
2021/07/05 04:32:01;;;;;;;4.83;1.47;;;11.50;99.90;;;11.95;100.00;94884.00;2342071;57;26724;-50
2021/07/05 04:34:48;;;;;;;2.67;1.33;;;11.50;99.90;;;12.00;100.00;94886.00;2150134;57;27349;-51
2021/07/05 04:37:37;;;;;;;2.13;1.30;;;11.60;99.90;;;12.05;100.00;94877.00;2374143;56;26148;-51
2021/07/05 04:40:27;;;;;;;2.27;1.30;;;11.60;99.90;;;12.10;100.00;94884.00;2161444;56;27033;-53
2021/07/05 04:43:13;;;;;;;1.70;1.43;;;11.70;99.90;;;12.18;100.00;94887.00;2377279;56;26124;-51
2021/07/05 04:46:04;;;;;;;3.10;1.30;;;11.80;99.90;;;12.27;100.00;94889.00;2168598;56;26731;-50
2021/07/05 04:48:54;;;;;;;2.67;1.50;;;11.90;99.90;;;12.35;100.00;94883.00;2395575;56;26890;-51
2021/07/05 04:51:40;;;;;;;3.10;1.40;;;12.00;99.90;;;12.45;100.00;94896.00;2172582;57;27591;-51
2021/07/05 04:54:26;;;;;;;1.90;1.40;;;12.00;99.90;;;12.50;100.00;94886.00;2171592;57;26761;-50
2021/07/05 04:57:12;;;;;;;3.63;1.53;;;12.20;99.90;;;12.70;100.00;94881.00;2388437;56;26125;-50
2021/07/05 04:59:59;;;;;;;3.33;1.40;;;12.30;99.90;;;12.87;100.00;94889.00;2176916;57;26825;-51
2021/07/05 05:05:44;;;;;;;3.77;1.50;;;12.50;99.90;;;13.14;100.00;94848.00;2427645;54;34313;-51
2021/07/05 05:11:26;;;;;;;1.70;1.60;;;12.50;99.90;;;13.12;100.00;94841.00;2372398;55;34257;-51
2021/07/05 05:14:12;;;;;;;2.60;1.30;;;12.70;99.90;;;13.20;100.00;94860.00;2162314;55;27341;-51
2021/07/05 05:16:58;;;;;;;1.50;1.40;;;12.70;99.90;;;13.22;100.00;94871.00;2152033;55;26923;-51
2021/07/05 05:19:44;;;;;;;1.90;1.40;;;12.90;99.90;;;13.45;100.00;94871.00;2410193;55;26637;-51
2021/07/05 05:28:24;;;;;;;1.60;1.30;;;13.10;99.90;;;13.86;100.00;94832.00;2416211;55;34016;-51
2021/07/05 05:31:10;;;;;;;4.47;1.40;;;13.30;99.90;;;13.79;100.00;94849.00;2420259;55;26869;-51
2021/07/05 05:33:56;;;;;;;1.40;1.30;;;13.50;99.90;;;14.03;100.00;94856.00;2412409;55;26151;-50
2021/07/05 05:36:42;;;;;;;2.10;1.40;;;13.60;99.90;;;14.18;100.00;94856.00;2200037;55;26765;-50
2021/07/05 05:39:29;;;;;;;8.10;1.30;;;13.70;99.90;;;14.25;100.00;94849.00;2418672;55;26794;-51
2021/07/05 05:42:15;;;;;;;2.08;1.58;;;13.70;99.90;;;14.22;100.00;94840.00;2199818;55;27255;-52
2021/07/05 05:45:02;;;;;;;1.33;1.23;;;13.90;99.90;;;14.39;100.00;94832.00;2200128;55;26663;-50
2021/07/05 05:47:48;;;;;;;1.42;1.30;;;14.10;99.90;;;14.68;100.00;94842.00;2198269;55;26847;-50
2021/07/05 05:50:35;;;;;;;3.00;1.20;;;14.20;99.90;;;14.77;100.00;94833.00;2198296;55;27487;-51
2021/07/05 05:53:21;;;;;;;2.20;1.20;;;14.30;99.90;;;15.01;100.00;94822.00;2437327;54;27181;-51
2021/07/05 05:56:08;;;;;;;2.40;1.10;;;14.40;99.90;;;14.97;100.00;94810.00;2198461;55;27240;-50
2021/07/05 05:58:59;;;;;;;1.60;1.10;;;14.50;99.90;;;15.10;100.00;94810.00;2210651;56;26869;-50
2021/07/05 06:01:49;;;;;;;1.80;1.10;;;14.50;99.90;;;15.07;100.00;94811.00;2428037;54;26152;-51
2021/07/05 06:04:35;;;;;;;3.40;1.25;;;14.70;99.90;;;15.30;100.00;94815.00;2217462;55;26778;-50
2021/07/05 06:07:22;;;;;;;4.90;1.17;;;15.00;99.90;;;16.36;100.00;94811.00;2217593;56;26705;-50
2021/07/05 06:10:11;;;;;;;2.50;1.00;;;16.10;99.90;;;18.53;100.00;94788.00;2216771;54;27309;-50
2021/07/05 06:12:57;;;;;;;2.10;0.90;;;17.60;99.90;;;20.67;100.00;94789.00;2215978;54;27273;-51
2021/07/05 06:15:44;;;;;;;1.00;0.80;;;19.50;99.90;;;23.36;100.00;94784.00;2214532;54;27270;-51
2021/07/05 06:18:30;;;;;;;2.00;1.00;;;21.30;99.90;;;25.13;100.00;94780.00;2217573;54;27066;-52
2021/07/05 06:21:19;;;;;;;3.00;0.90;;;22.70;99.90;;;26.59;100.00;94776.00;2211234;56;26809;-51
2021/07/05 06:24:07;;;;;;;1.23;1.05;;;23.50;99.90;;;27.01;100.00;94786.00;2448647;55;26670;-51
2021/07/05 06:26:54;;;;;;;1.62;0.85;;;24.20;99.90;;;28.20;100.00;94798.00;2226216;55;26217;-50
2021/07/05 06:29:40;;;;;;;3.12;1.02;;;24.60;99.90;;;28.04;100.00;94791.00;2232062;55;26646;-49
2021/07/05 06:32:26;;;;;;;2.20;1.00;;;25.20;99.90;;;28.61;100.00;94795.00;2235792;55;26981;-50
2021/07/05 06:38:12;;;;;;;1.95;0.90;;;24.90;99.90;;;28.09;100.00;94791.00;2426098;54;33627;-52
2021/07/05 06:40:59;;;;;;;0.95;0.90;;;24.70;99.90;;;27.65;100.00;94791.00;2222720;55;26275;-52
2021/07/05 06:43:45;;;;;;;1.33;0.95;;;25.80;99.90;;;29.33;100.00;94792.00;2467711;55;27279;-52
2021/07/05 06:46:32;;;;;;;1.20;1.10;;;26.90;99.90;;;30.04;100.00;94782.00;2238474;55;26627;-51
2021/07/05 06:49:18;;;;;;;1.85;1.00;;;27.20;99.90;;;29.56;100.00;94790.00;2460303;55;27205;-51
2021/07/05 06:55:07;;;;;;;2.75;1.00;;;27.40;99.90;;;31.43;90.53;94776.00;2482366;53;32502;-52
2021/07/05 06:57:54;;;;;;;1.62;1.00;;;27.70;99.90;;;30.90;99.62;94782.00;2232688;54;25752;-50
2021/07/05 07:03:38;;;;;;;2.35;1.00;;;28.20;99.90;;;31.56;82.47;94767.00;2408886;55;32706;-52
2021/07/05 07:06:24;;;;;;;2.25;1.10;;;27.90;99.90;;;30.80;88.50;94771.00;2199681;55;27009;-50
2021/07/05 07:09:11;;;;;;;1.00;0.90;;;27.90;99.90;;;30.94;81.14;94769.00;2171917;56;27050;-52
2021/07/05 07:11:57;;;;;;;2.47;1.10;;;28.70;99.90;;;32.68;69.89;94766.00;2347609;55;26270;-50
2021/07/05 07:14:43;;;;;;;4.62;1.10;;;29.70;99.90;;;34.00;62.47;94765.00;2136027;56;26122;-51
2021/07/05 07:20:27;;;;;;;0.80;0.80;;;29.10;99.90;;;31.66;66.80;94772.00;2359252;55;34281;-51
2021/07/05 07:23:13;;;;;;;2.05;0.90;;;28.50;99.90;;;31.05;64.69;94775.00;2161699;57;25062;-52
2021/07/05 07:25:59;;;;;;;0.90;0.90;;;28.20;99.90;;;30.86;64.71;94761.00;2174243;57;26907;-50
2021/07/05 07:28:50;;;;;;;3.00;0.90;;;28.10;99.90;;;29.50;58.34;94767.00;2374245;56;25778;-51
2021/07/05 07:34:32;;;;;;;4.90;1.10;;;28.00;99.90;;;31.95;79.26;94771.00;2371835;55;33830;-50
2021/07/05 07:40:19;;;;;;;1.15;0.80;;;29.30;99.90;;;31.79;50.88;94759.00;2376201;55;34233;-52
2021/07/05 07:43:05;;;;;;;1.20;0.98;;;29.30;99.90;;;31.98;57.65;94761.00;2150565;57;27111;-51
2021/07/05 07:45:52;;;;;;;1.10;1.00;;;28.60;99.90;;;31.74;50.63;94754.00;2170821;56;26621;-51
2021/07/05 07:48:38;;;;;;;1.33;0.82;;;30.00;99.90;;;33.87;41.56;94747.00;2369489;56;25577;-51
2021/07/05 07:54:20;;;;;;;0.90;0.90;;;30.00;99.90;;;30.96;57.62;94740.00;2463812;53;34024;-51
2021/07/05 07:57:07;;;;;;;1.05;0.90;;;29.40;99.90;;;32.30;55.61;94743.00;2440932;54;25787;-52
2021/07/05 08:02:51;;;;;;;0.85;0.80;;;29.00;99.90;;;31.05;55.37;94730.00;2421217;54;34118;-51
2021/07/05 08:05:37;;;;;;;1.62;0.88;;;28.40;99.90;;;29.90;63.11;94728.00;2207193;56;25912;-50
2021/07/05 08:08:24;;;;;;;0.98;0.80;;;29.10;99.90;;;31.62;59.80;94733.00;2403519;55;25621;-49
2021/07/05 08:14:09;;;;;;;1.10;1.00;;;29.00;99.90;;;31.50;57.32;94738.00;2433876;54;31974;-52
2021/07/05 08:16:55;;;;;;;1.25;1.00;;;28.80;99.90;;;31.01;51.75;94739.00;2210551;55;26809;-51
2021/07/05 08:19:42;;;;;;;1.83;0.80;;;29.40;99.90;;;32.05;64.81;94741.00;2435159;54;27447;-51
2021/07/05 08:22:28;;;;;;;0.90;0.90;;;30.60;99.90;;;33.51;46.01;94737.00;2202311;55;25682;-49
2021/07/05 08:25:15;;;;;;;1.58;1.00;;;31.40;99.90;;;33.76;48.86;94738.00;2422416;54;26684;-50
2021/07/05 08:31:01;;;;;;;1.05;1.00;;;29.40;99.90;;;29.96;59.35;94738.00;2456618;53;33687;-50
2021/07/05 08:33:50;;;;;;;1.02;0.93;;;28.80;99.90;;;29.80;60.57;94739.00;2217722;55;26702;-51
2021/07/05 08:39:32;;;;;;;2.15;1.00;;;27.80;99.90;;;28.37;79.00;94744.00;2408521;54;34103;-51
2021/07/05 08:45:20;;;;;;;1.10;1.00;;;27.10;99.90;;;28.38;84.48;94732.00;2415286;55;33577;-51
2021/07/05 08:48:09;;;;;;;1.67;1.00;;;26.70;99.90;;;28.01;84.58;94733.00;2186274;55;25159;-51
2021/07/05 08:50:56;;;;;;;0.80;0.80;;;26.20;99.90;;;26.91;79.19;94728.00;2438206;55;27613;-50
2021/07/05 08:53:44;;;;;;;1.10;0.90;;;25.40;99.90;;;25.94;100.00;94729.00;2195342;56;26758;-53
2021/07/05 08:56:30;;;;;;;2.25;1.00;;;25.10;99.90;;;25.72;100.00;94725.00;2427622;55;26722;-50
2021/07/05 08:59:17;;;;;;;2.70;1.00;;;25.00;99.90;;;26.10;100.00;94728.00;2201413;55;26810;-50
2021/07/05 09:02:04;;;;;;;2.15;1.00;;;25.10;99.90;;;26.54;94.66;94736.00;2432424;55;27217;-51
2021/07/05 09:04:52;;;;;;;2.33;1.00;;;24.90;99.90;;;26.24;100.00;94736.00;2212684;55;27401;-51
2021/07/05 09:08:03;;;;;;;1.55;1.10;;;25.00;99.90;;;25.95;100.00;94725.00;2436189;55;26606;-50
2021/07/05 09:10:52;;;;;;;1.30;1.00;;;25.50;99.90;;;26.96;100.00;94730.00;2438773;55;26647;-51
2021/07/05 09:13:56;;;;;;;0.95;0.85;;;25.70;99.90;;;27.13;100.00;94739.00;2213133;55;26165;-50
2021/07/05 09:16:44;;;;;;;1.85;1.10;;;25.70;99.90;;;26.83;94.40;94728.00;2212440;55;27129;-50
2021/07/05 09:19:32;;;;;;;0.90;0.80;;;25.80;99.90;;;26.80;93.46;94734.00;2437091;55;25626;-50
2021/07/05 09:22:19;;;;;;;1.08;0.98;;;26.10;99.90;;;27.15;80.10;94728.00;2213565;55;26849;-50
2021/07/05 09:25:08;;;;;;;1.33;1.10;;;25.70;99.90;;;26.84;84.64;94711.00;2437150;55;27038;-50
2021/07/05 09:28:02;;;;;;;2.90;0.90;;;25.90;99.90;;;27.60;89.20;94718.00;2214153;55;27739;-50
2021/07/05 09:30:52;;;;;;;1.85;1.00;;;25.90;99.90;;;27.29;77.74;94712.00;2214669;55;27235;-51
2021/07/05 09:33:47;;;;;;;1.42;0.90;;;26.00;99.90;;;26.97;76.41;94716.00;2436661;55;26851;-50
2021/07/05 09:39:30;;;;;;;1.02;0.80;;;26.00;99.90;;;27.42;79.68;94711.00;2378015;55;34800;-50
2021/07/05 09:42:16;;;;;;;1.17;1.00;;;25.20;99.90;;;25.99;78.71;94716.00;2165193;56;26858;-50
2021/07/05 09:45:08;;;;;;;1.45;0.90;;;24.40;99.90;;;25.31;89.47;94717.00;2388732;56;26682;-50
2021/07/05 09:48:14;;;;;;;1.10;1.00;;;24.40;99.90;;;25.24;89.96;94709.00;2166286;56;26712;-52
2021/07/05 09:51:05;;;;;;;1.20;0.93;;;24.60;99.90;;;25.41;89.76;94714.00;2152657;58;27232;-50
2021/07/05 09:53:51;;;;;;;1.00;0.90;;;25.10;99.90;;;26.22;72.47;94709.00;2161829;57;26761;-50
2021/07/05 09:56:38;;;;;;;0.88;0.80;;;25.20;99.90;;;26.47;76.04;94708.00;2178615;56;26599;-50
2021/07/05 09:59:26;;;;;;;1.92;0.77;;;25.80;99.90;;;26.66;75.02;94710.00;2419126;55;27287;-50
2021/07/05 10:02:12;;;;;;;2.12;1.10;;;25.30;99.90;;;26.01;92.02;94721.00;2186538;57;26247;-50
2021/07/05 10:08:09;;;;;;;0.90;0.90;;;25.40;99.90;;;26.77;89.80;94716.00;2421513;55;33130;-50
2021/07/05 10:11:05;;;;;;;1.98;1.10;;;24.80;99.90;;;25.51;79.74;94725.00;2177955;56;26721;-50
2021/07/05 10:13:52;;;;;;;1.67;1.08;;;25.30;99.90;;;26.70;95.08;94727.00;2165216;56;26272;-51
2021/07/05 10:19:34;;;;;;;1.15;0.93;;;25.80;99.90;;;27.65;78.50;94721.00;2410891;55;34638;-50
2021/07/05 10:22:21;;;;;;;2.28;0.90;;;26.00;99.90;;;27.10;77.15;94723.00;2408746;55;26915;-52
2021/07/05 10:28:05;;;;;;;1.10;0.90;;;26.00;99.90;;;26.32;70.36;94722.00;2475582;53;33938;-51
2021/07/05 10:30:53;;;;;;;1.48;0.82;;;25.10;99.90;;;25.98;83.75;94725.00;2462683;53;27450;-50
2021/07/05 10:33:40;;;;;;;1.90;0.88;;;24.90;99.90;;;25.50;78.13;94728.00;2227748;55;27130;-50
2021/07/05 10:36:30;;;;;;;2.03;1.10;;;24.70;99.90;;;25.49;90.21;94728.00;2240165;54;26801;-50
2021/07/05 10:39:17;;;;;;;2.45;1.00;;;24.70;99.90;;;25.51;81.98;94725.00;2243771;54;26930;-51
2021/07/05 10:42:26;;;;;;;1.05;0.98;;;24.80;99.90;;;25.92;76.86;94726.00;2235315;54;26842;-50
2021/07/05 10:45:17;;;;;;;1.80;1.00;;;25.40;99.90;;;26.76;86.80;94725.00;2477485;54;26927;-51
2021/07/05 10:48:05;;;;;;;1.55;0.90;;;25.50;99.90;;;26.25;73.56;94726.00;2263653;55;26832;-50
2021/07/05 10:50:57;;;;;;;1.42;1.00;;;25.20;99.90;;;25.99;78.66;94723.00;2262790;55;26812;-50
2021/07/05 10:53:56;;;;;;;1.33;0.82;;;25.30;99.90;;;26.23;84.27;94716.00;2253894;55;26947;-50
2021/07/05 10:56:53;;;;;;;1.10;1.00;;;25.00;99.90;;;25.61;74.87;94723.00;2495448;54;26958;-50
2021/07/05 10:59:45;;;;;;;2.60;1.00;;;24.90;99.90;;;25.49;86.90;94725.00;2497805;54;27214;-50
2021/07/05 11:08:44;;;;;;;1.40;0.95;;;25.20;99.90;;;26.18;82.79;94721.00;2403574;54;34541;-51
2021/07/05 11:11:32;;;;;;;1.92;1.10;;;25.80;99.90;;;26.64;87.67;94719.00;2378321;55;26820;-50
2021/07/05 11:17:26;;;;;;;1.95;1.10;;;26.10;99.90;;;26.29;82.69;94718.00;2392679;56;33670;-51
2021/07/05 11:20:15;;;;;;;3.33;1.40;;;25.70;99.90;;;26.78;100.00;94715.00;2160222;57;26760;-51
2021/07/05 11:23:02;;;;;;;1.25;1.02;;;26.50;99.90;;;27.93;91.49;94715.00;2134448;57;27178;-51
2021/07/05 11:28:44;;;;;;;0.98;0.90;;;26.20;99.90;;;27.49;79.30;94706.00;2430332;53;33210;-50
2021/07/05 11:31:30;;;;;;;0.80;0.80;;;26.00;99.90;;;27.07;70.38;94704.00;2397882;55;26081;-51
2021/07/05 11:37:34;;;;;;;1.10;0.95;;;26.40;99.90;;;26.89;83.02;94700.00;2346221;56;35217;-51
2021/07/05 11:40:41;;;;;;;1.20;1.10;;;26.40;99.90;;;27.39;81.26;94695.00;2339181;56;25898;-50
2021/07/05 11:44:04;;;;;;;0.82;0.82;;;26.60;99.90;;;27.52;89.07;94706.00;2361018;57;26752;-51
2021/07/05 11:46:54;;;;;;;1.33;1.05;;;26.30;99.90;;;27.38;74.34;94705.00;2146995;55;27017;-50
2021/07/05 11:52:36;;;;;;;0.80;0.80;;;25.90;99.90;;;26.09;74.39;94692.00;2381643;55;34292;-50
2021/07/05 11:55:25;;;;;;;0.90;0.90;;;25.30;99.90;;;26.18;89.55;94695.00;2162534;57;26747;-50
2021/07/05 12:01:13;;;;;;;0.95;0.90;;;24.80;99.90;;;25.70;91.44;94696.00;2393348;56;33846;-50
2021/07/05 12:04:02;;;;;;;1.45;1.00;;;24.50;99.90;;;25.45;79.66;94712.00;2132150;57;26820;-51
2021/07/05 12:06:49;;;;;;;1.52;0.82;;;24.70;99.90;;;25.63;94.90;94710.00;2133511;58;26806;-51
2021/07/05 12:09:39;;;;;;;2.50;0.88;;;25.20;99.90;;;26.26;81.45;94715.00;2126571;57;26694;-51
2021/07/05 12:12:26;;;;;;;1.70;0.90;;;25.20;99.90;;;26.26;85.25;94721.00;2325118;57;26880;-51
2021/07/05 12:15:13;;;;;;;0.80;0.80;;;25.20;99.90;;;26.08;86.32;94719.00;2151261;58;27100;-51
2021/07/05 12:17:59;;;;;;;0.90;0.90;;;25.10;99.90;;;25.71;87.05;94721.00;2150208;57;26380;-53
2021/07/05 12:20:56;;;;;;;1.00;0.90;;;24.70;99.90;;;25.53;87.02;94720.00;2361490;57;27324;-50
2021/07/05 12:23:43;;;;;;;2.20;0.98;;;24.60;99.90;;;25.12;100.00;94724.00;2362415;57;27382;-50
2021/07/05 12:26:40;;;;;;;1.10;1.00;;;24.40;99.90;;;24.94;98.50;94723.00;2150822;58;26853;-50
2021/07/05 12:29:31;;;;;;;1.92;0.80;;;24.00;99.90;;;24.56;96.12;94736.00;2365501;57;27313;-50
2021/07/05 12:32:20;;;;;;;1.10;1.00;;;24.20;99.90;;;25.13;100.00;94721.00;2150503;57;27234;-50
2021/07/05 12:35:08;;;;;;;1.70;0.90;;;24.50;99.90;;;25.64;100.00;94727.00;2360593;57;26824;-50
2021/07/05 12:37:58;;;;;;;1.00;0.90;;;24.00;99.90;;;24.39;98.88;94731.00;2147142;57;26253;-50
2021/07/05 12:40:45;;;;;;;2.17;1.08;;;23.70;99.90;;;24.42;100.00;94737.00;2362561;57;26692;-50
2021/07/05 12:46:28;;;;;;;1.10;0.95;;;23.70;99.90;;;23.95;100.00;94723.00;2334051;57;33955;-50
2021/07/05 12:49:15;;;;;;;1.20;1.10;;;23.40;99.90;;;24.35;100.00;94725.00;2347053;57;26161;-50
2021/07/05 12:55:17;;;;;;;1.20;0.80;;;23.60;99.90;;;24.61;100.00;94721.00;2400788;56;34195;-51
2021/07/05 12:58:04;;;;;;;1.17;0.93;;;23.90;99.90;;;24.55;100.00;94727.00;2402562;55;27180;-50
2021/07/05 13:00:50;;;;;;;1.73;1.00;;;23.60;99.90;;;24.01;100.00;94731.00;2176736;56;26249;-50
2021/07/05 13:06:36;;;;;;;1.87;1.00;;;23.60;99.90;;;24.47;100.00;94730.00;2409137;55;34866;-50
2021/07/05 13:12:19;;;;;;;2.47;1.10;;;23.40;99.90;;;23.75;100.00;94739.00;2374006;55;34231;-50
2021/07/05 13:15:17;;;;;;;1.52;1.00;;;23.20;99.90;;;23.67;100.00;94737.00;2168962;56;26868;-50
2021/07/05 13:21:09;;;;;;;2.42;1.20;;;23.00;99.90;;;23.63;100.00;94743.00;2461076;54;34088;-50
2021/07/05 13:23:57;;;;;;;1.90;1.00;;;23.00;99.90;;;23.66;100.00;94752.00;2189494;55;26577;-50
2021/07/05 13:26:45;;;;;;;1.50;1.20;;;23.00;99.90;;;23.58;100.00;94749.00;2404312;54;26998;-50
2021/07/05 13:29:35;;;;;;;1.12;1.00;;;23.00;99.90;;;23.61;100.00;94754.00;2204405;55;26731;-51
2021/07/05 13:32:23;;;;;;;2.05;1.10;;;23.00;99.90;;;23.66;100.00;94757.00;2210809;55;26095;-50
2021/07/05 13:35:11;;;;;;;2.90;1.20;;;23.00;99.90;;;23.82;100.00;94753.00;2445510;54;27248;-50
2021/07/05 13:38:02;;;;;;;3.55;1.08;;;23.30;99.90;;;23.89;100.00;94754.00;2222323;55;26658;-50
2021/07/05 13:40:53;;;;;;;1.27;1.10;;;23.20;99.90;;;24.10;100.00;94757.00;2442406;54;26684;-51
2021/07/05 13:43:49;;;;;;;1.77;1.08;;;23.30;99.90;;;23.87;100.00;94745.00;2217341;54;27521;-50
2021/07/05 13:46:35;;;;;;;3.15;1.20;;;23.60;99.90;;;24.30;100.00;94743.00;2419077;54;26918;-51
2021/07/05 13:49:22;;;;;;;2.33;0.90;;;23.70;99.90;;;24.44;100.00;94748.00;2185779;55;26840;-50